createdAt,value
2017-06-30T00:00:10.428Z,989.46
2017-06-30T00:01:20.683Z,989.6
2017-06-30T00:02:30.934Z,989.45
2017-06-30T00:03:41.131Z,989.44
2017-06-30T00:04:51.394Z,989.48
2017-06-30T00:06:01.641Z,989.45
2017-06-30T00:07:11.600Z,989.46
2017-06-30T00:08:21.865Z,989.6
2017-06-30T00:09:32.438Z,989.5
2017-06-30T00:10:42.697Z,989.51
2017-06-30T00:11:52.951Z,989.5
2017-06-30T00:13:02.894Z,989.54
2017-06-30T00:14:12.843Z,989.5
2017-06-30T00:15:22.720Z,989.6
2017-06-30T00:16:32.343Z,989.62
2017-06-30T00:17:42.606Z,989.75
2017-06-30T00:18:52.864Z,989.49
2017-06-30T00:20:02.812Z,989.47
2017-06-30T00:21:13.062Z,989.59
2017-06-30T00:22:23.023Z,989.54
2017-06-30T00:23:33.279Z,989.54
2017-06-30T00:24:43.257Z,989.58
2017-06-30T00:25:53.225Z,989.6
2017-06-30T00:27:03.429Z,989.61
2017-06-30T00:28:13.690Z,989.61
2017-06-30T00:29:23.948Z,989.58
2017-06-30T00:30:34.203Z,989.61
2017-06-30T00:31:44.148Z,989.63
2017-06-30T00:32:54.715Z,989.72
2017-06-30T00:34:04.667Z,990
2017-06-30T00:35:14.615Z,989.82
2017-06-30T00:36:24.885Z,989.73
2017-06-30T00:37:35.170Z,989.8
2017-06-30T00:38:45.097Z,989.84
2017-06-30T00:39:55.044Z,989.9
2017-06-30T00:41:05.305Z,989.94
2017-06-30T00:42:14.949Z,989.83
2017-06-30T00:43:25.208Z,989.89
2017-06-30T00:44:35.459Z,989.76
2017-06-30T00:45:45.714Z,989.86
2017-06-30T00:46:55.983Z,989.85
2017-06-30T00:48:06.246Z,989.89
2017-06-30T00:49:16.516Z,989.8
2017-06-30T00:50:27.077Z,989.94
2017-06-30T00:51:37.023Z,989.86
2017-06-30T00:52:46.976Z,989.86
2017-06-30T00:53:57.230Z,989.87
2017-06-30T00:55:07.168Z,989.93
2017-06-30T00:56:17.438Z,989.87
2017-06-30T00:57:27.405Z,990.02
2017-06-30T00:58:37.648Z,990.05
2017-06-30T00:59:47.608Z,989.78
2017-06-30T01:00:57.277Z,990.06
2017-06-30T01:02:07.784Z,989.92
2017-06-30T01:03:18.044Z,989.97
2017-06-30T01:04:28.320Z,989.94
2017-06-30T01:05:38.568Z,990.06
2017-06-30T01:06:48.829Z,990.01
2017-06-30T01:07:59.335Z,989.98
2017-06-30T01:09:09.622Z,989.76
2017-06-30T01:10:19.571Z,989.94
2017-06-30T01:11:29.825Z,990.03
2017-06-30T01:12:39.770Z,989.94
2017-06-30T01:13:50.334Z,990.01
2017-06-30T01:15:00.600Z,989.94
2017-06-30T01:16:10.862Z,989.99
2017-06-30T01:17:20.820Z,990
2017-06-30T01:18:31.065Z,990
2017-06-30T01:19:41.626Z,990.03
2017-06-30T01:20:51.885Z,989.98
2017-06-30T01:22:01.849Z,990.04
2017-06-30T01:23:11.809Z,989.89
2017-06-30T01:24:22.084Z,989.93
2017-06-30T01:25:32.590Z,989.94
2017-06-30T01:26:42.862Z,989.77
2017-06-30T01:27:53.131Z,989.78
2017-06-30T01:29:03.068Z,989.93
2017-06-30T01:30:13.920Z,989.81
2017-06-30T01:31:24.463Z,989.79
2017-06-30T01:32:34.414Z,989.84
2017-06-30T01:33:44.672Z,989.9
2017-06-30T01:34:54.622Z,989.97
2017-06-30T01:36:04.875Z,989.91
2017-06-30T01:37:15.436Z,989.84
2017-06-30T01:38:25.382Z,989.88
2017-06-30T01:39:35.623Z,989.82
2017-06-30T01:40:45.581Z,989.78
2017-06-30T01:41:55.856Z,989.88
2017-06-30T01:43:06.422Z,989.93
2017-06-30T01:44:16.366Z,990.14
2017-06-30T01:45:26.623Z,989.95
2017-06-30T01:46:36.880Z,990
2017-06-30T01:47:47.132Z,989.96
2017-06-30T01:48:57.691Z,989.95
2017-06-30T01:50:07.946Z,989.9
2017-06-30T01:51:18.239Z,989.87
2017-06-30T01:52:28.197Z,989.79
2017-06-30T01:53:38.153Z,989.94
2017-06-30T01:54:48.671Z,990.08
2017-06-30T01:55:58.941Z,989.91
2017-06-30T01:57:09.197Z,989.92
2017-06-30T01:58:19.445Z,989.92
2017-06-30T01:59:29.405Z,989.95
2017-06-30T02:00:39.907Z,989.95
2017-06-30T02:01:49.847Z,989.97
2017-06-30T02:02:59.789Z,990.05
2017-06-30T02:04:10.063Z,989.93
2017-06-30T02:05:20.308Z,989.89
2017-06-30T02:06:30.583Z,989.95
2017-06-30T02:07:40.531Z,990.09
2017-06-30T02:08:50.799Z,990.01
2017-06-30T02:10:01.051Z,990.08
2017-06-30T02:11:11.324Z,989.93
2017-06-30T02:12:21.568Z,990.04
2017-06-30T02:13:31.816Z,990.14
2017-06-30T02:14:41.765Z,990.21
2017-06-30T02:15:52.014Z,990
2017-06-30T02:17:01.973Z,990.11
2017-06-30T02:18:12.540Z,990.12
2017-06-30T02:19:22.802Z,990.1
2017-06-30T02:20:32.787Z,990.13
2017-06-30T02:21:43.049Z,990.16
2017-06-30T02:22:53.319Z,990.16
2017-06-30T02:24:03.838Z,990.16
2017-06-30T02:25:14.103Z,990.19
2017-06-30T02:26:24.384Z,990.17
2017-06-30T02:27:34.645Z,990.28
2017-06-30T02:28:44.577Z,990.21
2017-06-30T02:29:55.086Z,990.32
2017-06-30T02:31:05.035Z,990.24
2017-06-30T02:32:14.675Z,990.15
2017-06-30T02:33:24.620Z,990.29
2017-06-30T02:34:34.587Z,990.25
2017-06-30T02:35:44.895Z,990.3
2017-06-30T02:36:55.178Z,990.2
2017-06-30T02:38:05.430Z,990.33
2017-06-30T02:39:15.677Z,990.21
2017-06-30T02:40:25.926Z,990.26
2017-06-30T02:41:36.441Z,990.37
2017-06-30T02:42:46.912Z,990.26
2017-06-30T02:43:57.170Z,990.26
2017-06-30T02:45:07.126Z,990.15
2017-06-30T02:46:17.401Z,990.24
2017-06-30T02:47:27.916Z,990.22
2017-06-30T02:48:38.193Z,990.21
2017-06-30T02:49:48.164Z,990.28
2017-06-30T02:50:58.412Z,990.25
2017-06-30T02:52:08.349Z,990.27
2017-06-30T02:53:18.543Z,990.4
2017-06-30T02:54:28.794Z,990.42
2017-06-30T02:55:38.739Z,990.3
2017-06-30T02:56:48.999Z,990.52
2017-06-30T02:57:59.244Z,990.43
2017-06-30T02:59:09.436Z,990.4
2017-06-30T03:00:19.372Z,990.52
2017-06-30T03:01:29.649Z,990.4
2017-06-30T03:02:39.906Z,990.5
2017-06-30T03:03:50.157Z,990.41
2017-06-30T03:05:00.665Z,990.49
2017-06-30T03:06:10.917Z,990.49
2017-06-30T03:07:21.166Z,990.49
2017-06-30T03:08:31.475Z,990.45
2017-06-30T03:09:41.748Z,990.52
2017-06-30T03:10:52.248Z,990.56
2017-06-30T03:12:02.509Z,990.54
2017-06-30T03:13:12.762Z,990.53
2017-06-30T03:14:23.028Z,990.49
2017-06-30T03:15:32.971Z,990.47
2017-06-30T03:16:43.540Z,990.6
2017-06-30T03:17:53.795Z,990.52
2017-06-30T03:19:04.064Z,990.49
2017-06-30T03:20:14.010Z,990.49
2017-06-30T03:21:24.276Z,990.54
2017-06-30T03:22:34.780Z,990.6
2017-06-30T03:23:45.042Z,990.68
2017-06-30T03:24:55.302Z,990.56
2017-06-30T03:26:05.251Z,990.51
2017-06-30T03:27:15.201Z,990.49
2017-06-30T03:28:25.764Z,990.49
2017-06-30T03:29:36.022Z,990.78
2017-06-30T03:30:45.978Z,990.65
2017-06-30T03:31:56.230Z,990.57
2017-06-30T03:33:06.186Z,990.57
2017-06-30T03:34:16.729Z,990.61
2017-06-30T03:35:26.993Z,990.48
2017-06-30T03:36:36.625Z,990.63
2017-06-30T03:37:46.878Z,990.57
2017-06-30T03:38:57.132Z,990.57
2017-06-30T03:40:07.691Z,990.68
2017-06-30T03:41:17.957Z,990.73
2017-06-30T03:42:27.904Z,990.71
2017-06-30T03:43:37.860Z,990.61
2017-06-30T03:44:48.119Z,990.79
2017-06-30T03:45:58.675Z,990.78
2017-06-30T03:47:08.616Z,990.76
2017-06-30T03:48:18.561Z,990.73
2017-06-30T03:49:28.827Z,990.82
2017-06-30T03:50:38.766Z,990.69
2017-06-30T03:51:49.314Z,990.78
2017-06-30T03:52:59.572Z,990.81
2017-06-30T03:54:09.825Z,990.85
2017-06-30T03:55:20.079Z,990.78
2017-06-30T03:56:30.347Z,990.86
2017-06-30T03:57:40.556Z,990.83
2017-06-30T03:58:50.807Z,990.85
2017-06-30T04:00:00.749Z,990.92
2017-06-30T04:01:10.692Z,990.81
2017-06-30T04:02:20.632Z,990.87
2017-06-30T04:03:31.214Z,990.9
2017-06-30T04:04:41.488Z,990.92
2017-06-30T04:05:51.440Z,990.85
2017-06-30T04:07:01.704Z,991.02
2017-06-30T04:08:11.649Z,990.96
2017-06-30T04:09:22.150Z,990.98
2017-06-30T04:10:32.102Z,991.09
2017-06-30T04:11:42.353Z,991.12
2017-06-30T04:12:52.335Z,991.17
2017-06-30T04:14:02.589Z,991.16
2017-06-30T04:15:12.795Z,991.22
2017-06-30T04:16:22.739Z,991.25
2017-06-30T04:17:32.992Z,991.2
2017-06-30T04:18:43.241Z,991.09
2017-06-30T04:19:53.178Z,991.25
2017-06-30T04:21:03.736Z,991.2
2017-06-30T04:22:13.994Z,991.22
2017-06-30T04:23:23.944Z,991.24
2017-06-30T04:24:34.202Z,991.21
2017-06-30T04:25:44.459Z,991.03
2017-06-30T04:26:55.019Z,991.28
2017-06-30T04:28:05.255Z,991.2
2017-06-30T04:29:15.198Z,991.27
2017-06-30T04:30:25.453Z,991.42
2017-06-30T04:31:35.414Z,991.35
2017-06-30T04:32:45.926Z,991.3
2017-06-30T04:33:55.874Z,991.45
2017-06-30T04:35:06.136Z,991.36
2017-06-30T04:36:16.400Z,991.43
2017-06-30T04:37:26.646Z,991.45
2017-06-30T04:38:37.141Z,991.45
2017-06-30T04:39:47.087Z,991.37
2017-06-30T04:40:57.365Z,991.5
2017-06-30T04:42:07.632Z,991.39
2017-06-30T04:43:17.882Z,991.36
2017-06-30T04:44:28.387Z,991.48
2017-06-30T04:45:38.638Z,991.4
2017-06-30T04:46:48.898Z,991.38
2017-06-30T04:47:59.177Z,991.49
2017-06-30T04:49:09.679Z,991.59
2017-06-30T04:50:20.181Z,991.48
2017-06-30T04:51:30.460Z,991.81
2017-06-30T04:52:40.754Z,991.46
2017-06-30T04:53:51.032Z,991.58
2017-06-30T04:55:01.310Z,991.48
2017-06-30T04:56:11.827Z,991.52
2017-06-30T04:57:22.102Z,991.47
2017-06-30T04:58:32.358Z,991.49
2017-06-30T04:59:42.296Z,991.36
2017-06-30T05:00:52.547Z,991.65
2017-06-30T05:02:03.065Z,991.73
2017-06-30T05:03:13.030Z,991.57
2017-06-30T05:04:23.310Z,991.71
2017-06-30T05:05:33.563Z,991.72
2017-06-30T05:06:43.861Z,991.68
2017-06-30T05:07:54.417Z,991.72
2017-06-30T05:09:04.709Z,991.75
2017-06-30T05:10:14.974Z,991.77
2017-06-30T05:11:24.635Z,991.81
2017-06-30T05:12:34.892Z,991.83
2017-06-30T05:13:45.396Z,991.96
2017-06-30T05:14:55.663Z,992.08
2017-06-30T05:16:05.310Z,992.17
2017-06-30T05:17:15.573Z,992.1
2017-06-30T05:18:25.844Z,991.84
2017-06-30T05:19:36.093Z,991.96
2017-06-30T05:20:46.358Z,991.88
2017-06-30T05:21:56.636Z,991.77
2017-06-30T05:23:06.919Z,991.99
2017-06-30T05:24:17.180Z,991.97
2017-06-30T05:25:27.693Z,991.94
2017-06-30T05:26:37.628Z,991.95
2017-06-30T05:27:47.580Z,992.24
2017-06-30T05:28:57.838Z,991.95
2017-06-30T05:30:08.109Z,992.03
2017-06-30T05:31:18.623Z,992
2017-06-30T05:32:28.881Z,992.06
2017-06-30T05:33:39.127Z,992.03
2017-06-30T05:34:49.396Z,992.09
2017-06-30T05:35:59.652Z,992.29
2017-06-30T05:37:09.550Z,992.49
2017-06-30T05:38:19.794Z,992.14
2017-06-30T05:39:30.064Z,992.09
2017-06-30T05:40:40.318Z,992.09
2017-06-30T05:41:50.572Z,992.31
2017-06-30T05:43:01.123Z,992.2
2017-06-30T05:44:11.369Z,992.25
2017-06-30T05:45:21.647Z,992.18
2017-06-30T05:46:31.917Z,992.27
2017-06-30T05:47:42.177Z,992.29
2017-06-30T05:48:52.721Z,992.44
2017-06-30T05:50:03.006Z,992.3
2017-06-30T05:51:12.970Z,992.37
2017-06-30T05:52:22.969Z,992.46
2017-06-30T05:53:33.234Z,992.38
2017-06-30T05:54:43.790Z,992.48
2017-06-30T05:55:54.078Z,992.33
2017-06-30T05:57:04.400Z,992.43
2017-06-30T05:58:14.665Z,992.47
2017-06-30T05:59:24.628Z,992.47
2017-06-30T06:00:35.241Z,992.51
2017-06-30T06:01:45.189Z,992.47
2017-06-30T06:02:55.442Z,992.53
2017-06-30T06:04:05.692Z,992.56
2017-06-30T06:05:15.969Z,992.62
2017-06-30T06:06:26.168Z,992.61
2017-06-30T06:07:36.435Z,992.57
2017-06-30T06:08:46.402Z,992.57
2017-06-30T06:09:56.667Z,992.81
2017-06-30T06:11:06.936Z,992.63
2017-06-30T06:12:17.510Z,992.81
2017-06-30T06:13:27.784Z,992.67
2017-06-30T06:14:38.033Z,992.69
2017-06-30T06:15:47.980Z,992.85
2017-06-30T06:16:58.222Z,992.88
2017-06-30T06:18:08.469Z,992.88
2017-06-30T06:19:18.724Z,992.84
2017-06-30T06:20:28.990Z,992.69
2017-06-30T06:21:39.267Z,992.78
2017-06-30T06:22:49.519Z,993.21
2017-06-30T06:23:59.410Z,992.87
2017-06-30T06:25:09.371Z,993.01
2017-06-30T06:26:19.633Z,993.02
2017-06-30T06:27:29.574Z,992.93
2017-06-30T06:28:39.835Z,993.03
2017-06-30T06:29:50.334Z,993.06
2017-06-30T06:31:00.601Z,992.96
2017-06-30T06:32:10.555Z,993.55
2017-06-30T06:33:20.822Z,993.08
2017-06-30T06:34:31.324Z,993.14
2017-06-30T06:35:41.506Z,993.14
2017-06-30T06:36:51.768Z,993.1
2017-06-30T06:38:02.041Z,993.11
2017-06-30T06:39:12.314Z,993.24
2017-06-30T06:40:22.250Z,993.4
2017-06-30T06:41:32.809Z,993.11
2017-06-30T06:42:43.073Z,993.17
2017-06-30T06:43:53.345Z,993.19
2017-06-30T06:45:03.311Z,993.51
2017-06-30T06:46:13.629Z,993.21
2017-06-30T06:47:24.186Z,993.42
2017-06-30T06:48:34.427Z,993.34
2017-06-30T06:49:44.692Z,993.19
2017-06-30T06:50:54.650Z,993.45
2017-06-30T06:52:04.930Z,993.21
2017-06-30T06:53:15.426Z,993.3
2017-06-30T06:54:25.378Z,993.5
2017-06-30T06:55:35.333Z,993.31
2017-06-30T06:56:45.283Z,993.43
2017-06-30T06:57:55.604Z,993.31
2017-06-30T06:59:06.176Z,993.28
2017-06-30T07:00:16.444Z,993.38
2017-06-30T07:01:26.736Z,993.59
2017-06-30T11:43:21.314Z,996.1
2017-06-30T11:44:31.608Z,996.11
2017-06-30T11:45:41.583Z,996.05
2017-06-30T11:46:51.245Z,996.18
2017-06-30T11:53:06.348Z,996.07
2017-06-30T11:54:16.665Z,996.2
2017-06-30T11:55:26.956Z,996.22
2017-06-30T11:56:37.246Z,996.09
2017-06-30T11:57:47.517Z,996.09
2017-06-30T11:58:58.042Z,996.15
2017-06-30T12:00:08.327Z,996.1
2017-06-30T12:01:18.616Z,996.51
2017-06-30T12:02:28.898Z,996.26
2017-06-30T12:03:38.926Z,996.13
2017-06-30T12:04:49.136Z,996.23
2017-06-30T12:05:59.446Z,996.22
2017-06-30T12:07:09.724Z,996.33
2017-06-30T12:08:20.025Z,996.33
2017-06-30T12:09:30.567Z,996.31
2017-06-30T12:10:40.475Z,996.2
2017-06-30T12:11:50.767Z,996.37
2017-06-30T12:13:00.745Z,996.13
2017-06-30T12:14:10.706Z,996.3
2017-06-30T12:15:20.664Z,996.24
2017-06-30T12:16:30.892Z,996.37
2017-06-30T12:17:40.832Z,996.48
2017-06-30T12:18:50.799Z,996.38
2017-06-30T12:20:01.058Z,996.24
2017-06-30T12:21:11.323Z,996.26
2017-06-30T12:22:21.556Z,996.38
2017-06-30T12:23:31.827Z,996.27
2017-06-30T12:24:42.097Z,996.33
2017-06-30T12:25:52.051Z,996.36
2017-06-30T12:27:02.341Z,996.44
2017-06-30T12:28:12.237Z,996.22
2017-06-30T12:29:22.525Z,996.49
2017-06-30T12:30:32.788Z,996.34
2017-06-30T12:31:43.070Z,996.34
2017-06-30T12:32:53.356Z,996.59
2017-06-30T12:34:03.690Z,996.33
2017-06-30T12:35:13.980Z,996.5
2017-06-30T12:36:24.256Z,996.36
2017-06-30T12:37:34.515Z,996.34
2017-06-30T12:38:44.467Z,996.26
2017-06-30T12:39:54.986Z,996.36
2017-06-30T12:41:04.999Z,996.3
2017-06-30T12:42:15.287Z,996.31
2017-06-30T12:43:25.235Z,996.11
2017-06-30T12:44:35.527Z,996.36
2017-06-30T12:45:45.752Z,996.32
2017-06-30T12:46:55.712Z,996.38
2017-06-30T12:48:06.015Z,996.49
2017-06-30T12:49:16.270Z,996.37
2017-06-30T12:50:26.539Z,996.33
2017-06-30T12:51:36.746Z,996.39
2017-06-30T12:52:47.019Z,996.21
2017-06-30T12:53:57.301Z,996.32
2017-06-30T12:55:07.305Z,996.34
2017-06-30T12:56:17.601Z,996.58
2017-06-30T12:57:28.133Z,996.54
2017-06-30T12:58:38.414Z,996.46
2017-06-30T12:59:48.686Z,996.3
2017-06-30T13:00:58.967Z,996.42
2017-06-30T13:02:09.239Z,996.36
2017-06-30T13:03:19.438Z,996.41
2017-06-30T13:04:29.708Z,996.45
2017-06-30T13:05:39.683Z,996.38
2017-06-30T13:06:49.954Z,996.34
2017-06-30T13:08:00.227Z,996.4
2017-06-30T13:09:10.760Z,996.46
2017-06-30T13:10:20.722Z,996.45
2017-06-30T13:11:30.995Z,996.47
2017-06-30T13:12:41.267Z,996.55
2017-06-30T13:13:51.593Z,996.42
2017-06-30T13:15:01.807Z,996.41
2017-06-30T13:16:12.092Z,996.46
2017-06-30T13:17:22.396Z,996.44
2017-06-30T13:18:32.667Z,996.49
2017-06-30T13:19:42.940Z,996.67
2017-06-30T13:20:53.523Z,996.63
2017-06-30T13:22:03.789Z,996.7
2017-06-30T13:23:14.044Z,996.55
2017-06-30T13:24:24.312Z,996.57
2017-06-30T13:25:34.187Z,996.6
2017-06-30T13:26:44.970Z,996.53
2017-06-30T13:27:55.270Z,996.53
2017-06-30T13:29:05.564Z,996.63
2017-06-30T13:30:15.211Z,996.48
2017-06-30T13:31:25.500Z,996.62
2017-06-30T13:32:36.019Z,996.5
2017-06-30T13:33:46.307Z,996.61
2017-06-30T13:34:56.588Z,996.56
2017-06-30T13:36:05.949Z,996.57
2017-06-30T13:37:15.916Z,996.6
2017-06-30T13:38:26.454Z,996.59
2017-06-30T13:39:36.450Z,996.56
2017-06-30T13:40:46.718Z,996.42
2017-06-30T13:41:57.005Z,996.63
2017-06-30T13:43:07.281Z,996.54
2017-06-30T13:44:17.811Z,996.34
2017-06-30T13:45:28.078Z,996.65
2017-06-30T13:46:38.053Z,996.55
2017-06-30T13:47:48.314Z,996.62
2017-06-30T13:48:58.266Z,996.62
2017-06-30T13:50:08.479Z,996.62
2017-06-30T13:51:18.736Z,996.72
2017-06-30T13:52:28.697Z,996.64
2017-06-30T13:53:38.973Z,996.7
2017-06-30T13:54:49.228Z,996.76
2017-06-30T13:55:59.754Z,996.8
2017-06-30T13:57:09.724Z,996.78
2017-06-30T13:58:20.003Z,996.75
2017-06-30T13:59:30.270Z,996.7
2017-06-30T14:00:39.879Z,996.72
2017-06-30T14:01:49.792Z,996.68
2017-06-30T14:02:59.755Z,996.77
2017-06-30T14:04:09.722Z,996.57
2017-06-30T14:05:20.028Z,996.57
2017-06-30T14:06:30.290Z,996.58
2017-06-30T14:07:40.497Z,996.58
2017-06-30T14:08:50.762Z,996.58
2017-06-30T14:10:00.728Z,996.56
2017-06-30T14:11:10.695Z,996.53
2017-06-30T14:12:20.963Z,996.4
2017-06-30T14:13:31.477Z,996.59
2017-06-30T14:14:41.750Z,996.65
2017-06-30T14:15:51.702Z,996.96
2017-06-30T14:17:01.997Z,996.94
2017-06-30T14:18:12.251Z,996.81
2017-06-30T14:19:22.784Z,996.86
2017-06-30T14:20:33.040Z,996.94
2017-06-30T14:21:43.330Z,997
2017-06-30T14:22:53.624Z,997.19
2017-06-30T14:24:03.582Z,997.22
2017-06-30T14:25:13.837Z,997.06
2017-06-30T14:26:24.108Z,996.87
2017-06-30T14:27:34.067Z,996.91
2017-06-30T14:28:44.009Z,997.01
2017-06-30T14:29:53.963Z,996.98
2017-06-30T14:31:04.515Z,997
2017-06-30T14:32:14.171Z,997.09
2017-06-30T14:33:24.432Z,997.24
2017-06-30T14:34:34.707Z,997.24
2017-06-30T14:35:44.974Z,997.26
2017-06-30T14:36:54.864Z,997.26
2017-06-30T14:38:05.123Z,997.29
2017-06-30T14:39:15.402Z,997.43
2017-06-30T14:40:25.355Z,997.51
2017-06-30T14:41:35.658Z,997.59
2017-06-30T14:42:46.180Z,998.04
2017-06-30T14:43:56.453Z,997.65
2017-06-30T14:45:06.411Z,997.64
2017-06-30T14:46:16.383Z,997.61
2017-06-30T14:47:26.367Z,997.65
2017-06-30T14:48:36.585Z,997.5
2017-06-30T14:49:46.231Z,997.57
2017-06-30T14:50:56.484Z,997.46
2017-06-30T14:52:06.751Z,997.45
2017-06-30T14:53:17.018Z,997.46
2017-06-30T14:54:27.556Z,997.61
2017-06-30T14:55:37.865Z,997.89
2017-06-30T14:56:47.811Z,997.76
2017-06-30T14:57:58.081Z,997.81
2017-06-30T14:59:08.026Z,997.82
2017-06-30T15:00:18.540Z,997.8
2017-06-30T15:01:28.817Z,997.8
2017-06-30T15:02:38.759Z,997.8
2017-06-30T15:03:49.023Z,997.81
2017-06-30T15:04:59.496Z,997.76
2017-06-30T15:06:10.014Z,997.66
2017-06-30T15:07:20.281Z,997.64
2017-06-30T15:08:30.560Z,997.67
2017-06-30T15:09:40.218Z,997.72
2017-06-30T15:10:49.871Z,997.71
2017-06-30T15:11:59.795Z,997.59
2017-06-30T15:13:10.158Z,997.53
2017-06-30T15:14:20.441Z,997.46
2017-06-30T15:15:30.402Z,997.48
2017-06-30T15:16:40.060Z,997.47
2017-06-30T15:17:50.598Z,997.48
2017-06-30T15:19:00.554Z,997.43
2017-06-30T15:20:10.818Z,997.45
2017-06-30T15:21:21.079Z,997.47
2017-06-30T15:22:31.350Z,997.43
2017-06-30T15:23:41.912Z,997.47
2017-06-30T15:24:52.180Z,997.44
2017-06-30T15:26:01.835Z,997.48
2017-06-30T15:27:11.471Z,997.49
2017-06-30T15:28:21.425Z,997.52
2017-06-30T15:29:31.944Z,997.53
2017-06-30T15:30:42.208Z,997.53
2017-06-30T15:31:52.480Z,997.49
2017-06-30T15:33:02.763Z,997.52
2017-06-30T15:34:13.030Z,997.52
2017-06-30T15:35:23.540Z,997.52
2017-06-30T15:36:33.802Z,997.48
2017-06-30T15:37:43.754Z,997.52
2017-06-30T15:38:53.743Z,997.54
2017-06-30T15:40:03.996Z,997.48
2017-06-30T15:41:14.227Z,997.5
2017-06-30T15:42:24.503Z,997.53
2017-06-30T15:43:34.768Z,997.49
2017-06-30T15:44:45.030Z,997.51
2017-06-30T15:45:54.978Z,997.5
2017-06-30T15:47:04.565Z,997.48
2017-06-30T15:48:14.517Z,997.55
2017-06-30T15:49:24.473Z,997.56
2017-06-30T15:50:34.734Z,997.55
2017-06-30T15:51:44.699Z,997.6
2017-06-30T15:52:54.906Z,997.58
2017-06-30T15:54:05.193Z,997.63
2017-06-30T15:55:15.458Z,997.65
2017-06-30T15:56:25.747Z,997.6
2017-06-30T15:57:35.703Z,997.66
2017-06-30T15:58:46.218Z,997.68
2017-06-30T15:59:56.176Z,997.66
2017-06-30T16:01:05.814Z,997.69
2017-06-30T16:02:16.100Z,997.67
2017-06-30T16:03:26.372Z,997.75
2017-06-30T16:04:36.956Z,997.71
2017-06-30T16:05:46.911Z,997.72
2017-06-30T16:06:57.188Z,997.71
2017-06-30T16:08:07.459Z,997.76
2017-06-30T16:09:17.400Z,997.76
2017-06-30T16:10:27.969Z,997.77
2017-06-30T16:11:38.256Z,997.78
2017-06-30T16:12:48.517Z,997.73
2017-06-30T16:13:58.484Z,997.8
2017-06-30T16:15:08.776Z,997.77
2017-06-30T16:16:19.029Z,997.69
2017-06-30T16:17:29.293Z,997.67
2017-06-30T16:18:39.552Z,997.65
2017-06-30T16:19:49.836Z,997.64
2017-06-30T16:21:00.137Z,997.78
2017-06-30T16:22:10.343Z,997.76
2017-06-30T16:23:20.653Z,997.75
2017-06-30T16:24:30.950Z,997.73
2017-06-30T16:25:41.241Z,997.75
2017-06-30T16:26:51.524Z,997.82
2017-06-30T16:28:02.034Z,997.83
2017-06-30T16:29:12.310Z,997.88
2017-06-30T16:30:22.599Z,997.91
2017-06-30T16:31:32.550Z,997.9
2017-06-30T16:32:42.812Z,998
2017-06-30T16:33:52.714Z,998.05
2017-06-30T16:35:02.967Z,998.04
2017-06-30T16:36:12.924Z,998.02
2017-06-30T16:37:23.201Z,998
2017-06-30T16:38:33.150Z,997.99
2017-06-30T16:39:43.703Z,998.04
2017-06-30T16:40:53.973Z,998.05
2017-06-30T16:42:04.251Z,998.07
2017-06-30T16:43:14.198Z,998.05
2017-06-30T16:44:24.470Z,998.04
2017-06-30T16:45:34.683Z,998.02
2017-06-30T16:46:44.934Z,997.97
2017-06-30T16:47:54.894Z,997.92
2017-06-30T16:49:04.839Z,997.96
2017-06-30T16:50:15.115Z,998.01
2017-06-30T16:51:25.628Z,997.9
2017-06-30T16:52:35.585Z,997.87
2017-06-30T16:53:45.855Z,997.91
2017-06-30T16:54:56.127Z,997.96
2017-06-30T16:56:05.781Z,998.04
2017-06-30T16:57:16.008Z,998.05
2017-06-30T16:58:25.976Z,998.04
2017-06-30T16:59:36.245Z,998.01
2017-06-30T17:00:46.507Z,998.01
2017-06-30T17:01:56.780Z,998.11
2017-06-30T17:03:06.993Z,998.33
2017-06-30T17:04:17.168Z,998.61
2017-06-30T17:05:27.150Z,998.52
2017-06-30T17:06:37.431Z,998.47
2017-06-30T17:07:47.714Z,998.48
2017-06-30T17:08:58.227Z,998.66
2017-06-30T17:10:08.504Z,998.77
2017-06-30T17:11:18.782Z,998.84
2017-06-30T17:12:28.424Z,998.69
2017-06-30T17:13:38.694Z,998.54
2017-06-30T17:14:49.203Z,998.67
2017-06-30T17:15:59.175Z,998.92
2017-06-30T17:17:09.457Z,998.55
2017-06-30T17:18:19.725Z,998.4
2017-06-30T17:19:29.682Z,998.39
2017-06-30T17:20:40.190Z,998.44
2017-06-30T17:21:50.443Z,998.69
2017-06-30T17:23:00.723Z,998.91
2017-06-30T17:24:10.361Z,999.01
2017-06-30T17:25:20.627Z,998.95
2017-06-30T17:26:30.839Z,998.78
2017-06-30T17:27:40.811Z,998.91
2017-06-30T17:28:51.068Z,998.85
2017-06-30T17:30:01.335Z,998.98
2017-06-30T17:31:11.287Z,998.99
2017-06-30T17:32:21.547Z,998.86
2017-06-30T17:33:31.818Z,998.74
2017-06-30T17:34:42.131Z,998.7
2017-06-30T17:35:52.386Z,998.84
2017-06-30T17:37:02.656Z,998.82
2017-06-30T17:38:13.187Z,998.77
2017-06-30T17:39:23.460Z,998.71
2017-06-30T17:40:33.088Z,998.74
2017-06-30T17:41:43.334Z,998.74
2017-06-30T17:42:52.670Z,998.75
2017-06-30T17:44:03.202Z,998.69
2017-06-30T17:45:13.461Z,998.7
2017-06-30T17:46:23.721Z,998.66
2017-06-30T17:47:33.975Z,998.65
2017-06-30T17:48:43.927Z,998.69
2017-06-30T17:49:54.438Z,998.65
2017-06-30T17:51:04.700Z,998.62
2017-06-30T17:52:14.986Z,998.63
2017-06-30T17:53:24.938Z,998.61
2017-06-30T17:54:35.208Z,998.62
2017-06-30T17:55:45.411Z,998.58
2017-06-30T17:56:55.698Z,998.57
2017-06-30T17:58:05.970Z,998.61
2017-06-30T17:59:16.265Z,998.62
2017-06-30T18:00:26.518Z,998.61
2017-06-30T18:01:37.020Z,998.56
2017-06-30T18:02:47.288Z,998.6
2017-06-30T18:03:57.560Z,998.54
2017-06-30T18:05:07.816Z,998.59
2017-06-30T18:06:17.799Z,998.64
2017-06-30T18:07:28.308Z,998.72
2017-06-30T18:08:38.575Z,998.71
2017-06-30T18:09:48.578Z,998.69
2017-06-30T18:10:58.536Z,998.73
2017-06-30T18:12:08.492Z,998.7
2017-06-30T18:13:19.030Z,998.7
2017-06-30T18:14:28.977Z,998.72
2017-06-30T18:15:39.274Z,998.79
2017-06-30T18:16:49.552Z,998.77
2017-06-30T18:17:59.512Z,998.75
2017-06-30T18:19:09.708Z,998.76
2017-06-30T18:20:19.988Z,998.78
2017-06-30T18:21:30.233Z,998.82
2017-06-30T18:22:40.189Z,998.89
2017-06-30T18:23:50.171Z,998.88
2017-06-30T18:25:00.679Z,998.88
2017-06-30T18:26:10.954Z,998.85
2017-06-30T18:27:20.931Z,998.86
2017-06-30T18:28:31.204Z,998.95
2017-06-30T18:29:41.150Z,998.98
2017-06-30T18:30:51.659Z,998.99
2017-06-30T18:32:01.972Z,999.02
2017-06-30T18:33:12.241Z,998.95
2017-06-30T18:34:21.891Z,998.99
2017-06-30T18:35:32.217Z,999.05
2017-06-30T18:36:42.498Z,999
2017-06-30T18:37:52.776Z,999.07
2017-06-30T18:39:03.037Z,999.15
2017-06-30T18:40:13.318Z,999.1
2017-06-30T18:41:23.591Z,999.04
2017-06-30T18:42:34.120Z,999.07
2017-06-30T18:43:43.796Z,999.06
2017-06-30T18:44:54.061Z,999.06
2017-06-30T18:46:04.039Z,999.06
2017-06-30T18:47:14.010Z,999.06
2017-06-30T18:48:24.550Z,999.11
2017-06-30T18:49:34.810Z,999.2
2017-06-30T18:50:45.071Z,999.27
2017-06-30T18:51:55.349Z,999.35
2017-06-30T18:53:05.614Z,999.41
2017-06-30T18:54:16.130Z,999.35
2017-06-30T18:55:26.082Z,999.33
2017-06-30T18:56:36.360Z,999.3
2017-06-30T18:57:46.018Z,999.44
2017-06-30T18:58:55.967Z,999.46
2017-06-30T19:00:06.526Z,999.51
2017-06-30T19:01:16.829Z,999.57
2017-06-30T19:02:26.787Z,999.46
2017-06-30T19:03:37.066Z,999.34
2017-06-30T19:04:47.027Z,999.41
2017-06-30T19:05:57.573Z,999.43
2017-06-30T19:07:07.513Z,999.43
2017-06-30T19:08:17.475Z,999.39
2017-06-30T19:09:27.734Z,999.44
2017-06-30T19:10:37.982Z,999.43
2017-06-30T19:11:48.198Z,999.46
2017-06-30T19:12:58.161Z,999.51
2017-06-30T19:14:08.420Z,999.43
2017-06-30T19:15:18.377Z,999.42
2017-06-30T19:16:28.018Z,999.45
2017-06-30T19:17:38.548Z,999.45
2017-06-30T19:18:47.877Z,999.48
2017-06-30T19:19:57.864Z,999.47
2017-06-30T19:21:07.834Z,999.48
2017-06-30T19:22:17.789Z,999.47
2017-06-30T19:23:28.349Z,999.51
2017-06-30T19:24:37.992Z,999.5